sensor_id;sensor_type;location;lat;lon;timestamp;temperature;humidity
40323;DHT22;26030;51.164;17.100;2023-08-07T00:01:14;24.90;65.70
40323;DHT22;26030;51.164;17.100;2023-08-07T00:06:21;24.90;65.90
40323;DHT22;26030;51.164;17.100;2023-08-07T00:11:26;24.90;65.50
40323;DHT22;26030;51.164;17.100;2023-08-07T00:16:33;24.90;65.50
40323;DHT22;26030;51.164;17.100;2023-08-07T00:21:37;24.80;66.00
40323;DHT22;26030;51.164;17.100;2023-08-07T00:26:51;24.80;65.40
40323;DHT22;26030;51.164;17.100;2023-08-07T00:31:56;24.70;65.50
40323;DHT22;26030;51.164;17.100;2023-08-07T00:37:02;24.80;65.40
40323;DHT22;26030;51.164;17.100;2023-08-07T00:42:09;24.80;65.30
40323;DHT22;26030;51.164;17.100;2023-08-07T00:47:13;24.70;65.70
40323;DHT22;26030;51.164;17.100;2023-08-07T00:52:18;24.80;65.40
40323;DHT22;26030;51.164;17.100;2023-08-07T00:57:23;24.80;65.50
40323;DHT22;26030;51.164;17.100;2023-08-07T01:07:37;24.60;65.50
40323;DHT22;26030;51.164;17.100;2023-08-07T01:12:52;24.60;65.70
40323;DHT22;26030;51.164;17.100;2023-08-07T01:18:03;24.60;65.80
40323;DHT22;26030;51.164;17.100;2023-08-07T01:23:18;24.60;65.70
40323;DHT22;26030;51.164;17.100;2023-08-07T01:28:26;24.60;65.80
40323;DHT22;26030;51.164;17.100;2023-08-07T01:33:48;24.60;65.70
40323;DHT22;26030;51.164;17.100;2023-08-07T01:39:01;24.60;66.00
40323;DHT22;26030;51.164;17.100;2023-08-07T01:44:07;24.60;65.60
40323;DHT22;26030;51.164;17.100;2023-08-07T01:49:11;24.50;65.60
40323;DHT22;26030;51.164;17.100;2023-08-07T01:54:16;24.50;65.70
40323;DHT22;26030;51.164;17.100;2023-08-07T01:59:20;24.50;65.70
40323;DHT22;26030;51.164;17.100;2023-08-07T02:04:25;24.50;65.70
40323;DHT22;26030;51.164;17.100;2023-08-07T02:09:29;24.60;65.40
40323;DHT22;26030;51.164;17.100;2023-08-07T02:14:33;24.70;65.20
40323;DHT22;26030;51.164;17.100;2023-08-07T02:19:38;24.60;65.30
40323;DHT22;26030;51.164;17.100;2023-08-07T02:24:42;24.50;65.60
40323;DHT22;26030;51.164;17.100;2023-08-07T02:29:46;24.50;65.70
40323;DHT22;26030;51.164;17.100;2023-08-07T02:34:51;24.40;65.80
40323;DHT22;26030;51.164;17.100;2023-08-07T02:39:55;24.40;65.90
40323;DHT22;26030;51.164;17.100;2023-08-07T02:44:59;24.40;65.90
40323;DHT22;26030;51.164;17.100;2023-08-07T02:50:04;24.40;65.90
40323;DHT22;26030;51.164;17.100;2023-08-07T02:55:08;24.40;65.90
40323;DHT22;26030;51.164;17.100;2023-08-07T03:00:13;24.30;66.00
40323;DHT22;26030;51.164;17.100;2023-08-07T03:05:17;24.30;66.10
40323;DHT22;26030;51.164;17.100;2023-08-07T03:10:22;24.30;66.40
40323;DHT22;26030;51.164;17.100;2023-08-07T03:15:29;24.30;66.00
40323;DHT22;26030;51.164;17.100;2023-08-07T03:20:35;24.30;66.10
40323;DHT22;26030;51.164;17.100;2023-08-07T03:25:40;24.30;66.10
40323;DHT22;26030;51.164;17.100;2023-08-07T03:30:45;24.30;66.00
40323;DHT22;26030;51.164;17.100;2023-08-07T03:35:50;24.30;66.10
40323;DHT22;26030;51.164;17.100;2023-08-07T03:40:56;24.30;66.00
40323;DHT22;26030;51.164;17.100;2023-08-07T03:46:00;24.30;66.10
40323;DHT22;26030;51.164;17.100;2023-08-07T03:51:07;24.20;66.10
40323;DHT22;26030;51.164;17.100;2023-08-07T03:56:18;24.30;66.10
40323;DHT22;26030;51.164;17.100;2023-08-07T04:01:23;24.20;65.90
40323;DHT22;26030;51.164;17.100;2023-08-07T04:06:28;24.30;65.70
40323;DHT22;26030;51.164;17.100;2023-08-07T04:11:34;24.40;65.20
40323;DHT22;26030;51.164;17.100;2023-08-07T04:16:39;24.40;65.40
40323;DHT22;26030;51.164;17.100;2023-08-07T04:21:46;24.30;65.60
40323;DHT22;26030;51.164;17.100;2023-08-07T04:26:50;24.30;65.90
40323;DHT22;26030;51.164;17.100;2023-08-07T04:31:55;24.20;66.00
40323;DHT22;26030;51.164;17.100;2023-08-07T04:36:59;24.20;66.30
40323;DHT22;26030;51.164;17.100;2023-08-07T04:42:04;24.20;65.70
40323;DHT22;26030;51.164;17.100;2023-08-07T04:47:09;24.30;65.80
40323;DHT22;26030;51.164;17.100;2023-08-07T04:52:13;24.20;66.00
40323;DHT22;26030;51.164;17.100;2023-08-07T04:57:29;24.20;65.90
40323;DHT22;26030;51.164;17.100;2023-08-07T05:02:33;24.20;66.00
40323;DHT22;26030;51.164;17.100;2023-08-07T05:07:37;24.20;65.90
40323;DHT22;26030;51.164;17.100;2023-08-07T05:12:45;24.20;65.90
40323;DHT22;26030;51.164;17.100;2023-08-07T05:17:49;24.20;65.90
40323;DHT22;26030;51.164;17.100;2023-08-07T05:22:54;24.20;65.90
40323;DHT22;26030;51.164;17.100;2023-08-07T05:27:59;24.20;66.00
40323;DHT22;26030;51.164;17.100;2023-08-07T05:33:04;24.20;65.80
40323;DHT22;26030;51.164;17.100;2023-08-07T05:38:08;24.20;65.80
40323;DHT22;26030;51.164;17.100;2023-08-07T05:43:12;24.20;65.80
40323;DHT22;26030;51.164;17.100;2023-08-07T05:48:16;24.20;65.90
40323;DHT22;26030;51.164;17.100;2023-08-07T05:53:21;24.10;65.80
40323;DHT22;26030;51.164;17.100;2023-08-07T05:58:25;24.20;65.80
40323;DHT22;26030;51.164;17.100;2023-08-07T06:03:29;24.20;65.80
40323;DHT22;26030;51.164;17.100;2023-08-07T06:08:33;24.10;65.70
40323;DHT22;26030;51.164;17.100;2023-08-07T06:13:39;24.20;65.80
40323;DHT22;26030;51.164;17.100;2023-08-07T06:18:44;24.20;66.20
40323;DHT22;26030;51.164;17.100;2023-08-07T06:23:48;24.20;66.20
40323;DHT22;26030;51.164;17.100;2023-08-07T06:28:53;24.20;65.70
40323;DHT22;26030;51.164;17.100;2023-08-07T06:33:57;24.20;65.80
40323;DHT22;26030;51.164;17.100;2023-08-07T06:39:03;24.10;65.70
40323;DHT22;26030;51.164;17.100;2023-08-07T06:44:07;24.30;66.50
40323;DHT22;26030;51.164;17.100;2023-08-07T06:49:12;24.30;67.30
40323;DHT22;26030;51.164;17.100;2023-08-07T06:54:16;24.30;68.60
40323;DHT22;26030;51.164;17.100;2023-08-07T06:59:20;24.30;68.00
40323;DHT22;26030;51.164;17.100;2023-08-07T07:04:24;24.30;67.30
40323;DHT22;26030;51.164;17.100;2023-08-07T07:09:29;24.20;66.30
40323;DHT22;26030;51.164;17.100;2023-08-07T07:14:33;24.10;65.80
40323;DHT22;26030;51.164;17.100;2023-08-07T07:19:40;24.00;65.80
40323;DHT22;26030;51.164;17.100;2023-08-07T07:24:44;23.90;65.50
40323;DHT22;26030;51.164;17.100;2023-08-07T07:29:48;23.90;65.20
40323;DHT22;26030;51.164;17.100;2023-08-07T07:34:53;23.80;65.10
40323;DHT22;26030;51.164;17.100;2023-08-07T07:39:57;23.70;64.20
40323;DHT22;26030;51.164;17.100;2023-08-07T07:45:04;23.80;64.00
40323;DHT22;26030;51.164;17.100;2023-08-07T07:50:09;23.90;63.90
40323;DHT22;26030;51.164;17.100;2023-08-07T07:55:14;23.90;63.30
40323;DHT22;26030;51.164;17.100;2023-08-07T08:00:18;23.80;63.60
40323;DHT22;26030;51.164;17.100;2023-08-07T08:05:22;23.80;63.10
40323;DHT22;26030;51.164;17.100;2023-08-07T08:10:27;23.80;63.80
40323;DHT22;26030;51.164;17.100;2023-08-07T08:15:31;23.90;63.00
40323;DHT22;26030;51.164;17.100;2023-08-07T08:20:36;23.90;63.80
40323;DHT22;26030;51.164;17.100;2023-08-07T08:25:40;23.90;62.30
40323;DHT22;26030;51.164;17.100;2023-08-07T08:30:45;23.90;62.10
40323;DHT22;26030;51.164;17.100;2023-08-07T08:35:49;23.80;61.50
40323;DHT22;26030;51.164;17.100;2023-08-07T08:40:53;23.90;61.50
40323;DHT22;26030;51.164;17.100;2023-08-07T08:45:57;23.80;61.70
40323;DHT22;26030;51.164;17.100;2023-08-07T08:51:01;23.80;62.20
40323;DHT22;26030;51.164;17.100;2023-08-07T08:56:07;23.80;61.50
40323;DHT22;26030;51.164;17.100;2023-08-07T09:01:12;23.80;61.20
40323;DHT22;26030;51.164;17.100;2023-08-07T09:06:17;23.90;60.90
40323;DHT22;26030;51.164;17.100;2023-08-07T09:11:22;23.90;60.70
40323;DHT22;26030;51.164;17.100;2023-08-07T09:16:26;24.00;61.10
40323;DHT22;26030;51.164;17.100;2023-08-07T09:21:32;24.20;63.00
40323;DHT22;26030;51.164;17.100;2023-08-07T09:26:38;24.10;64.10
40323;DHT22;26030;51.164;17.100;2023-08-07T09:31:46;24.20;64.00
40323;DHT22;26030;51.164;17.100;2023-08-07T09:36:51;24.20;63.40
40323;DHT22;26030;51.164;17.100;2023-08-07T09:41:56;24.30;63.50
40323;DHT22;26030;51.164;17.100;2023-08-07T09:47:00;24.40;63.10
40323;DHT22;26030;51.164;17.100;2023-08-07T09:52:16;24.50;62.60
40323;DHT22;26030;51.164;17.100;2023-08-07T09:57:20;24.60;62.80
40323;DHT22;26030;51.164;17.100;2023-08-07T10:02:24;24.70;62.50
40323;DHT22;26030;51.164;17.100;2023-08-07T10:07:29;24.50;62.20
40323;DHT22;26030;51.164;17.100;2023-08-07T10:12:33;24.70;61.50
40323;DHT22;26030;51.164;17.100;2023-08-07T10:17:39;24.70;60.50
40323;DHT22;26030;51.164;17.100;2023-08-07T10:22:43;24.70;61.20
40323;DHT22;26030;51.164;17.100;2023-08-07T10:27:49;24.60;61.70
40323;DHT22;26030;51.164;17.100;2023-08-07T10:32:57;24.60;61.90
40323;DHT22;26030;51.164;17.100;2023-08-07T10:38:09;24.70;62.40
40323;DHT22;26030;51.164;17.100;2023-08-07T10:43:16;24.80;61.60
40323;DHT22;26030;51.164;17.100;2023-08-07T10:48:21;24.80;61.00
40323;DHT22;26030;51.164;17.100;2023-08-07T10:58:40;24.90;60.70
40323;DHT22;26030;51.164;17.100;2023-08-07T11:03:55;25.00;60.20
40323;DHT22;26030;51.164;17.100;2023-08-07T11:09:00;25.10;60.00
40323;DHT22;26030;51.164;17.100;2023-08-07T11:14:09;25.10;59.50
40323;DHT22;26030;51.164;17.100;2023-08-07T11:19:23;25.10;59.80
40323;DHT22;26030;51.164;17.100;2023-08-07T11:24:28;25.10;60.00
40323;DHT22;26030;51.164;17.100;2023-08-07T11:29:33;25.10;59.90
40323;DHT22;26030;51.164;17.100;2023-08-07T11:34:37;25.00;59.80
40323;DHT22;26030;51.164;17.100;2023-08-07T11:39:42;25.00;60.30
40323;DHT22;26030;51.164;17.100;2023-08-07T11:44:46;25.20;60.80
40323;DHT22;26030;51.164;17.100;2023-08-07T11:49:51;25.10;59.70
40323;DHT22;26030;51.164;17.100;2023-08-07T11:54:56;25.10;60.30
40323;DHT22;26030;51.164;17.100;2023-08-07T12:00:00;25.20;60.50
40323;DHT22;26030;51.164;17.100;2023-08-07T12:05:07;25.10;60.60
40323;DHT22;26030;51.164;17.100;2023-08-07T12:10:14;25.10;60.40
40323;DHT22;26030;51.164;17.100;2023-08-07T12:15:19;25.20;59.40
40323;DHT22;26030;51.164;17.100;2023-08-07T12:20:23;25.10;59.40
40323;DHT22;26030;51.164;17.100;2023-08-07T12:25:27;25.10;60.10
40323;DHT22;26030;51.164;17.100;2023-08-07T12:30:34;25.10;59.50
40323;DHT22;26030;51.164;17.100;2023-08-07T12:35:39;25.20;59.80
40323;DHT22;26030;51.164;17.100;2023-08-07T12:40:44;25.20;59.50
40323;DHT22;26030;51.164;17.100;2023-08-07T12:45:48;25.20;58.90
40323;DHT22;26030;51.164;17.100;2023-08-07T12:50:55;25.30;59.40
40323;DHT22;26030;51.164;17.100;2023-08-07T12:56:00;25.10;59.40
40323;DHT22;26030;51.164;17.100;2023-08-07T13:01:05;25.10;58.80
40323;DHT22;26030;51.164;17.100;2023-08-07T13:06:09;25.10;58.70
40323;DHT22;26030;51.164;17.100;2023-08-07T13:11:15;25.40;58.30
40323;DHT22;26030;51.164;17.100;2023-08-07T13:16:19;25.40;60.50
40323;DHT22;26030;51.164;17.100;2023-08-07T13:21:24;25.30;60.00
40323;DHT22;26030;51.164;17.100;2023-08-07T13:26:28;25.30;62.70
40323;DHT22;26030;51.164;17.100;2023-08-07T13:31:32;25.40;62.20
40323;DHT22;26030;51.164;17.100;2023-08-07T13:36:37;25.20;62.10
40323;DHT22;26030;51.164;17.100;2023-08-07T13:41:41;25.30;63.40
40323;DHT22;26030;51.164;17.100;2023-08-07T13:46:46;25.20;61.80
40323;DHT22;26030;51.164;17.100;2023-08-07T13:51:51;25.20;62.50
40323;DHT22;26030;51.164;17.100;2023-08-07T13:56:55;25.20;62.50
40323;DHT22;26030;51.164;17.100;2023-08-07T14:02:01;25.10;61.90
40323;DHT22;26030;51.164;17.100;2023-08-07T14:07:05;25.10;62.10
40323;DHT22;26030;51.164;17.100;2023-08-07T14:12:10;25.10;61.20
40323;DHT22;26030;51.164;17.100;2023-08-07T14:17:15;25.10;60.80
40323;DHT22;26030;51.164;17.100;2023-08-07T14:22:21;25.00;61.40
40323;DHT22;26030;51.164;17.100;2023-08-07T14:27:25;25.00;61.30
40323;DHT22;26030;51.164;17.100;2023-08-07T14:32:30;24.90;60.90
40323;DHT22;26030;51.164;17.100;2023-08-07T14:37:34;24.90;61.80
40323;DHT22;26030;51.164;17.100;2023-08-07T14:42:38;25.10;65.10
40323;DHT22;26030;51.164;17.100;2023-08-07T14:47:43;25.10;63.10
40323;DHT22;26030;51.164;17.100;2023-08-07T14:52:49;25.10;64.40
40323;DHT22;26030;51.164;17.100;2023-08-07T14:57:53;25.20;63.40
40323;DHT22;26030;51.164;17.100;2023-08-07T15:02:58;25.20;64.00
40323;DHT22;26030;51.164;17.100;2023-08-07T15:08:02;25.10;63.60
40323;DHT22;26030;51.164;17.100;2023-08-07T15:13:07;25.10;63.60
40323;DHT22;26030;51.164;17.100;2023-08-07T15:18:11;25.20;63.60
40323;DHT22;26030;51.164;17.100;2023-08-07T15:23:17;25.30;63.20
40323;DHT22;26030;51.164;17.100;2023-08-07T15:28:21;25.10;63.00
40323;DHT22;26030;51.164;17.100;2023-08-07T15:33:27;25.00;62.50
40323;DHT22;26030;51.164;17.100;2023-08-07T15:38:31;25.00;62.50
40323;DHT22;26030;51.164;17.100;2023-08-07T15:43:40;25.00;62.50
40323;DHT22;26030;51.164;17.100;2023-08-07T15:48:45;24.90;62.90
40323;DHT22;26030;51.164;17.100;2023-08-07T15:53:49;24.90;63.50
40323;DHT22;26030;51.164;17.100;2023-08-07T15:58:56;24.80;63.30
40323;DHT22;26030;51.164;17.100;2023-08-07T16:04:00;24.80;63.20
40323;DHT22;26030;51.164;17.100;2023-08-07T16:09:09;24.70;62.90
40323;DHT22;26030;51.164;17.100;2023-08-07T16:14:14;24.60;62.90
40323;DHT22;26030;51.164;17.100;2023-08-07T16:19:18;24.60;63.10
40323;DHT22;26030;51.164;17.100;2023-08-07T16:24:23;24.50;62.30
40323;DHT22;26030;51.164;17.100;2023-08-07T16:29:36;24.30;62.10
40323;DHT22;26030;51.164;17.100;2023-08-07T16:34:41;24.20;61.30
40323;DHT22;26030;51.164;17.100;2023-08-07T16:39:46;24.30;61.30
40323;DHT22;26030;51.164;17.100;2023-08-07T16:44:51;24.20;62.50
40323;DHT22;26030;51.164;17.100;2023-08-07T16:49:56;24.10;61.50
40323;DHT22;26030;51.164;17.100;2023-08-07T16:55:02;24.30;61.70
40323;DHT22;26030;51.164;17.100;2023-08-07T17:00:06;24.40;61.30
40323;DHT22;26030;51.164;17.100;2023-08-07T17:05:14;24.60;60.30
40323;DHT22;26030;51.164;17.100;2023-08-07T17:10:18;24.70;60.20
40323;DHT22;26030;51.164;17.100;2023-08-07T17:15:23;24.70;60.50
40323;DHT22;26030;51.164;17.100;2023-08-07T17:20:28;24.60;61.00
40323;DHT22;26030;51.164;17.100;2023-08-07T17:25:35;24.60;61.00
40323;DHT22;26030;51.164;17.100;2023-08-07T17:30:40;24.60;61.20
40323;DHT22;26030;51.164;17.100;2023-08-07T17:35:45;24.60;61.20
40323;DHT22;26030;51.164;17.100;2023-08-07T17:40:50;24.60;61.00
40323;DHT22;26030;51.164;17.100;2023-08-07T17:45:54;24.50;61.30
40323;DHT22;26030;51.164;17.100;2023-08-07T17:50:59;24.50;61.40
40323;DHT22;26030;51.164;17.100;2023-08-07T17:56:04;24.50;61.20
40323;DHT22;26030;51.164;17.100;2023-08-07T18:01:09;24.50;61.10
40323;DHT22;26030;51.164;17.100;2023-08-07T18:06:14;24.50;61.30
40323;DHT22;26030;51.164;17.100;2023-08-07T18:11:23;24.50;61.10
40323;DHT22;26030;51.164;17.100;2023-08-07T18:16:28;24.50;61.20
40323;DHT22;26030;51.164;17.100;2023-08-07T18:21:33;24.50;61.20
40323;DHT22;26030;51.164;17.100;2023-08-07T18:26:40;24.50;61.20
40323;DHT22;26030;51.164;17.100;2023-08-07T18:31:49;24.40;61.10
40323;DHT22;26030;51.164;17.100;2023-08-07T18:36:54;24.40;61.40
40323;DHT22;26030;51.164;17.100;2023-08-07T18:41:59;24.40;61.00
40323;DHT22;26030;51.164;17.100;2023-08-07T18:47:04;24.40;61.00
40323;DHT22;26030;51.164;17.100;2023-08-07T18:52:09;24.50;61.60
40323;DHT22;26030;51.164;17.100;2023-08-07T18:57:15;24.40;61.10
40323;DHT22;26030;51.164;17.100;2023-08-07T19:02:19;24.40;61.00
40323;DHT22;26030;51.164;17.100;2023-08-07T19:07:26;24.40;61.30
40323;DHT22;26030;51.164;17.100;2023-08-07T19:12:31;24.30;60.90
40323;DHT22;26030;51.164;17.100;2023-08-07T19:17:40;24.40;61.50
40323;DHT22;26030;51.164;17.100;2023-08-07T19:22:45;24.40;60.90
40323;DHT22;26030;51.164;17.100;2023-08-07T19:27:51;24.40;60.30
40323;DHT22;26030;51.164;17.100;2023-08-07T19:32:58;24.30;61.10
40323;DHT22;26030;51.164;17.100;2023-08-07T19:38:03;24.30;60.80
40323;DHT22;26030;51.164;17.100;2023-08-07T19:43:09;24.30;61.30
40323;DHT22;26030;51.164;17.100;2023-08-07T19:48:15;24.30;60.60
40323;DHT22;26030;51.164;17.100;2023-08-07T19:53:20;24.30;60.50
40323;DHT22;26030;51.164;17.100;2023-08-07T19:58:24;24.30;60.50
40323;DHT22;26030;51.164;17.100;2023-08-07T20:03:29;24.20;60.50
40323;DHT22;26030;51.164;17.100;2023-08-07T20:08:33;24.20;60.50
40323;DHT22;26030;51.164;17.100;2023-08-07T20:13:38;24.20;61.00
40323;DHT22;26030;51.164;17.100;2023-08-07T20:18:43;24.30;60.80
40323;DHT22;26030;51.164;17.100;2023-08-07T20:23:48;24.30;60.80
40323;DHT22;26030;51.164;17.100;2023-08-07T20:28:53;24.40;60.90
40323;DHT22;26030;51.164;17.100;2023-08-07T20:33:59;24.50;61.10
40323;DHT22;26030;51.164;17.100;2023-08-07T20:39:03;24.10;61.30
40323;DHT22;26030;51.164;17.100;2023-08-07T20:44:07;24.20;60.50
40323;DHT22;26030;51.164;17.100;2023-08-07T20:49:12;24.10;60.40
40323;DHT22;26030;51.164;17.100;2023-08-07T20:54:17;24.10;58.60
40323;DHT22;26030;51.164;17.100;2023-08-07T20:59:21;24.10;59.60
40323;DHT22;26030;51.164;17.100;2023-08-07T21:04:29;24.20;60.00
40323;DHT22;26030;51.164;17.100;2023-08-07T21:09:34;24.30;59.80
40323;DHT22;26030;51.164;17.100;2023-08-07T21:14:38;24.20;60.20
40323;DHT22;26030;51.164;17.100;2023-08-07T21:19:42;24.20;60.50
40323;DHT22;26030;51.164;17.100;2023-08-07T21:24:46;24.20;60.30
40323;DHT22;26030;51.164;17.100;2023-08-07T21:29:51;24.20;60.40
40323;DHT22;26030;51.164;17.100;2023-08-07T21:34:55;24.30;61.30
40323;DHT22;26030;51.164;17.100;2023-08-07T21:40:00;24.40;61.70
40323;DHT22;26030;51.164;17.100;2023-08-07T21:45:04;24.30;62.40
40323;DHT22;26030;51.164;17.100;2023-08-07T21:50:12;24.40;61.80
40323;DHT22;26030;51.164;17.100;2023-08-07T21:55:17;24.50;62.30
40323;DHT22;26030;51.164;17.100;2023-08-07T22:00:21;24.50;62.20
40323;DHT22;26030;51.164;17.100;2023-08-07T22:05:26;24.40;61.90
40323;DHT22;26030;51.164;17.100;2023-08-07T22:10:31;24.40;62.20
40323;DHT22;26030;51.164;17.100;2023-08-07T22:15:36;24.40;62.30
40323;DHT22;26030;51.164;17.100;2023-08-07T22:20:41;24.50;62.80
40323;DHT22;26030;51.164;17.100;2023-08-07T22:25:46;24.50;62.40
40323;DHT22;26030;51.164;17.100;2023-08-07T22:30:50;24.40;62.90
40323;DHT22;26030;51.164;17.100;2023-08-07T22:35:55;24.50;62.70
40323;DHT22;26030;51.164;17.100;2023-08-07T22:40:59;24.40;62.70
40323;DHT22;26030;51.164;17.100;2023-08-07T22:46:04;24.40;62.60
40323;DHT22;26030;51.164;17.100;2023-08-07T22:51:08;24.30;62.80
40323;DHT22;26030;51.164;17.100;2023-08-07T22:56:14;24.30;63.10
40323;DHT22;26030;51.164;17.100;2023-08-07T23:01:18;24.30;63.70
40323;DHT22;26030;51.164;17.100;2023-08-07T23:06:23;24.30;63.90
40323;DHT22;26030;51.164;17.100;2023-08-07T23:11:27;24.30;64.20
40323;DHT22;26030;51.164;17.100;2023-08-07T23:16:31;24.40;63.60
40323;DHT22;26030;51.164;17.100;2023-08-07T23:21:35;24.40;63.30
40323;DHT22;26030;51.164;17.100;2023-08-07T23:26:40;24.40;63.50
40323;DHT22;26030;51.164;17.100;2023-08-07T23:31:44;24.40;63.70
40323;DHT22;26030;51.164;17.100;2023-08-07T23:36:48;24.30;63.60
40323;DHT22;26030;51.164;17.100;2023-08-07T23:41:52;24.30;63.80
40323;DHT22;26030;51.164;17.100;2023-08-07T23:46:58;24.30;63.80
40323;DHT22;26030;51.164;17.100;2023-08-07T23:52:02;24.20;63.80
40323;DHT22;26030;51.164;17.100;2023-08-07T23:57:07;24.30;63.70
